Latest Weather Observations for Toowoomba

IDQ60801

Issued at 10:35 am EST Tuesday 16 September 2014 (issued every 30 minutes, with the page automatically refreshed every 10 minutes)

About weather observations | Map of weather stations | Latest weather observations for QLD | Other Formats
Station Details ID: 041529 Name: TOOWOOMBA AIRPORT Lat: -27.54 Lon: 151.91 Height: 640.9 m
Data from the previous 72 hours. | See also: Recent months at Toowoomba
Date/Time
EST
Temp
°C
App
Temp
°C
Dew
Point
Rel
Hum
%
Delta-T
°C
Wind Press
QNH
hPa
Press
MSL
hPa
Rain
since 9 am
mm
Dir
 
Spd
km/h
Gust
km/h
Spd
kts
Gust
kts
16/10:30am 22.2 16.3 5.6 34 8.6 WNW 26 33 14 18 1018.1 - 0.0
16/10:00am 21.9 16.0 5.8 35 8.3 NW 26 33 14 18 1018.3 - 0.0
16/09:30am 21.0 14.7 5.8 37 7.8 NW 28 37 15 20 1018.8 - 0.0
16/09:00am 19.5 13.7 6.3 42 6.8 NNW 26 37 14 20 1019.2 1017.5 0.0
16/08:30am 18.4 12.3 4.6 40 6.8 NW 26 37 14 20 1019.1 - 0.0
16/08:00am 18.2 13.6 5.8 44 6.3 NNW 19 26 10 14 1019.2 - 0.0
16/07:30am 16.4 12.5 5.4 48 5.5 NNW 15 20 8 11 1019.1 - 0.0
16/07:00am 15.7 11.7 5.0 49 5.2 N 15 24 8 13 1018.4 - 0.0
16/06:30am 14.9 11.0 5.4 53 4.7 N 15 20 8 11 1018.3 - 0.0
16/06:00am 14.4 10.6 5.7 56 4.3 N 15 20 8 11 1018.2 1016.5 0.0
16/05:30am 14.2 10.8 6.1 58 4.0 N 13 19 7 10 1018.1 - 0.0
16/05:00am 14.2 10.6 6.6 60 3.8 N 15 19 8 10 1017.9 - 0.0
16/04:30am 14.4 11.3 7.2 62 3.7 N 13 19 7 10 1017.7 - 0.0
16/04:00am 14.3 11.3 7.8 65 3.3 N 13 19 7 10 1017.6 - 0.0
16/03:30am 14.5 11.2 8.2 66 3.3 N 15 20 8 11 1017.5 - 0.0
16/03:00am 14.5 10.9 8.2 66 3.3 N 17 22 9 12 1017.4 1015.6 0.0
16/02:30am 14.7 11.5 8.4 66 3.3 N 15 22 8 12 1017.4 - 0.0
16/02:00am 15.0 12.1 8.3 64 3.5 N 13 17 7 9 1017.4 - 0.0
16/01:30am 15.5 11.9 8.3 62 3.8 N 17 24 9 13 1017.6 - 0.0
16/01:00am 15.1 12.4 9.0 67 3.2 NE 13 19 7 10 1017.7 - 0.0
16/12:30am 15.6 12.4 8.6 63 3.7 NE 15 24 8 13 1017.8 - 0.0
16/12:00am 16.1 12.6 8.8 62 3.9 NNE 17 22 9 12 1017.9 1016.2 0.0
 
Date/Time
EST
Temp
°C
App
Temp
°C
Dew
Point
Rel
Hum
%
Delta-T
°C
Wind Press
QNH
hPa
Press
MSL
hPa
Rain
since 9 am
mm
Dir
 
Spd
km/h
Gust
km/h
Spd
kts
Gust
kts
15/11:30pm 16.5 13.1 9.0 61 4.0 N 17 24 9 13 1018.1 - 0.0
15/11:00pm 16.5 13.0 8.7 60 4.1 NNE 17 26 9 14 1018.2 - 0.0
15/10:30pm 17.1 13.0 8.0 55 4.8 NNE 19 26 10 14 1018.3 - 0.0
15/10:00pm 16.9 13.9 7.5 54 4.9 NE 13 19 7 10 1018.5 - 0.0
15/09:30pm 17.5 14.4 7.3 51 5.3 NE 13 19 7 10 1018.5 - 0.0
15/09:00pm 17.9 14.4 7.3 50 5.5 N 15 20 8 11 1018.5 1016.8 0.0
15/08:30pm 18.4 14.8 6.9 47 6.0 N 15 19 8 10 1018.4 - 0.0
15/08:00pm 18.4 15.3 7.2 48 5.8 N 13 19 7 10 1018.2 - 0.0
15/07:30pm 18.5 15.5 7.6 49 5.7 NNE 13 19 7 10 1018.0 - 0.0
15/07:00pm 18.7 15.3 7.5 48 5.9 N 15 20 8 11 1017.8 - 0.0
15/06:30pm 19.1 16.1 7.5 47 6.1 N 13 19 7 10 1017.6 - 0.0
15/06:00pm 19.9 16.8 7.3 44 6.6 N 13 17 7 9 1017.4 1015.6 0.0
15/05:30pm 21.0 17.5 7.3 41 7.3 N 15 20 8 11 1017.1 - 0.0
15/05:00pm 22.6 19.0 5.1 32 9.0 W 13 17 7 9 1016.8 - 0.0
15/04:30pm 22.9 19.5 5.8 33 8.9 W 13 17 7 9 1016.7 - 0.0
15/04:00pm 22.0 17.4 6.3 36 8.2 WSW 20 26 11 14 1016.6 - 0.0
15/03:30pm 22.9 18.6 5.3 32 9.1 W 17 24 9 13 1016.7 - 0.0
15/03:00pm 23.2 18.9 5.1 31 9.3 WNW 17 26 9 14 1016.7 1015.0 0.0
15/02:30pm 23.4 19.3 6.2 33 9.1 WSW 17 22 9 12 1017.0 - 0.0
15/02:00pm 22.0 19.1 6.7 37 8.1 SSW 11 15 6 8 1017.4 - 0.0
15/01:30pm 23.4 20.4 7.5 36 8.6 WNW 13 20 7 11 1017.9 - 0.0
15/01:00pm 22.2 18.5 6.4 36 8.3 WNW 15 20 8 11 1018.3 - 0.0
15/12:30pm 21.9 18.0 7.0 38 7.9 W 17 28 9 15 1019.0 - 0.0
15/12:00pm 21.4 18.1 9.6 47 6.5 W 17 26 9 14 1019.5 1017.8 0.0
15/11:30am 20.7 17.1 9.9 50 6.0 W 19 26 10 14 1019.9 - 0.0
15/11:00am 20.1 17.2 11.1 56 5.1 W 17 24 9 13 1020.6 - 0.0
15/10:30am 19.2 15.9 11.0 59 4.6 WNW 19 26 10 14 1021.0 - 0.0
15/10:00am 18.7 15.1 9.8 56 4.9 W 19 26 10 14 1021.2 - 0.0
15/09:30am 19.3 16.6 10.3 56 5.0 WNW 15 20 8 11 1021.4 - 0.0
15/09:00am 18.2 15.4 10.1 59 4.4 WNW 15 20 8 11 1021.6 1019.9 0.0
15/08:30am 17.6 16.5 10.7 64 3.8 WNW 7 11 4 6 1021.7 - 0.0
15/08:00am 15.6 15.5 10.8 73 2.6 NNW 2 9 1 5 1021.5 - 0.0
15/07:30am 14.3 13.9 9.7 74 2.5 NW 2 6 1 3 1021.4 - 0.0
15/07:00am 13.4 12.2 10.4 82 1.6 N 7 11 4 6 1021.1 - 0.0
15/06:30am 11.9 10.1 9.5 85 1.3 NW 9 11 5 6 1021.0 - 0.0
15/06:00am 11.3 9.2 9.9 91 0.7 NNW 11 15 6 8 1020.6 1018.9 0.0
15/05:30am 9.7 7.8 9.1 96 0.3 E 9 9 5 5 1020.4 - 0.0
15/05:00am 9.7 7.8 8.9 95 0.4 E 9 11 5 6 1020.1 - 0.0
15/04:30am 10.1 7.5 9.5 96 0.3 E 13 15 7 8 1019.9 - 0.0
15/04:00am 10.1 7.9 9.3 95 0.4 E 11 13 6 7 1019.8 - 0.0
15/03:30am 10.3 8.1 9.5 95 0.4 E 11 13 6 7 1019.7 - 0.0
15/03:00am 10.3 8.1 9.5 95 0.4 E 11 13 6 7 1019.9 1018.2 0.0
15/02:30am 10.6 8.5 9.7 94 0.5 E 11 11 6 6 1020.1 - 0.0
15/02:00am 11.0 9.3 9.9 93 0.6 E 9 11 5 6 1020.4 - 0.0
15/01:30am 10.7 8.9 9.5 92 0.6 E 9 11 5 6 1020.7 - 0.0
15/01:00am 11.4 9.4 10.0 91 0.7 ENE 11 13 6 7 1020.8 - 0.0
15/12:30am 11.6 9.2 10.2 91 0.7 E 13 15 7 8 1021.1 - 0.0
15/12:00am 11.7 9.3 10.1 90 0.8 E 13 15 7 8 1021.4 1019.7 0.0
 
Date/Time
EST
Temp
°C
App
Temp
°C
Dew
Point
Rel
Hum
%
Delta-T
°C
Wind Press
QNH
hPa
Press
MSL
hPa
Rain
since 9 am
mm
Dir
 
Spd
km/h
Gust
km/h
Spd
kts
Gust
kts
14/11:30pm 12.0 10.0 10.1 88 1.0 E 11 15 6 8 1021.6 - 0.0
14/11:00pm 12.3 10.3 10.0 86 1.2 E 11 13 6 7 1021.7 - 0.0
14/10:30pm 12.5 9.9 9.5 82 1.6 E 13 15 7 8 1021.8 - 0.0
14/10:00pm 13.6 11.0 9.5 76 2.2 ENE 13 15 7 8 1021.8 - 0.0
14/09:30pm 14.0 11.3 9.0 72 2.6 NE 13 15 7 8 1021.8 - 0.0
14/09:00pm 14.3 11.8 8.0 66 3.2 ENE 11 15 6 8 1021.7 1020.0 0.0
14/08:30pm 15.3 12.7 7.8 61 3.9 ENE 11 11 6 6 1021.7 - 0.0
14/08:00pm 15.2 12.7 8.0 62 3.7 E 11 13 6 7 1021.7 - 0.0
14/07:30pm 15.6 13.0 7.9 60 4.0 ENE 11 13 6 7 1021.6 - 0.0
14/07:00pm 16.0 13.5 8.0 59 4.2 ENE 11 13 6 7 1021.4 - 0.0
14/06:30pm 16.7 13.8 8.1 57 4.5 E 13 17 7 9 1021.1 - 0.0
14/06:00pm 17.3 14.9 8.7 57 4.6 E 11 13 6 7 1021.0 1019.3 0.0
14/05:30pm 18.5 15.2 8.2 51 5.5 E 15 19 8 10 1020.9 - 0.0
14/05:00pm 19.6 16.5 7.4 45 6.4 ENE 13 19 7 10 1020.8 - 0.0
14/04:30pm 19.7 16.2 7.1 44 6.6 E 15 19 8 10 1020.8 - 0.0
14/04:00pm 21.1 18.6 6.6 39 7.6 E 9 13 5 7 1020.6 - 0.0
14/03:30pm 20.7 18.6 6.6 40 7.4 N 7 15 4 8 1020.6 - 0.0
14/03:00pm 20.0 17.4 7.7 45 6.5 ESE 11 20 6 11 1020.9 1019.2 0.0
14/02:30pm 20.2 18.3 7.6 44 6.7 SSW 7 11 4 6 1021.1 - 0.0
14/02:00pm 20.1 16.9 8.4 47 6.3 E 15 20 8 11 1021.5 - 0.0
14/01:30pm 19.2 16.5 9.1 52 5.5 SE 13 20 7 11 1021.8 - 0.0
14/01:00pm 20.1 19.0 10.8 55 5.2 E 7 15 4 8 1022.4 - 0.0
14/12:30pm 19.0 17.1 10.6 58 4.7 ESE 11 17 6 9 1022.8 - 0.0
14/12:00pm 18.2 16.6 10.1 59 4.4 ENE 9 19 5 10 1023.2 1021.6 0.0
14/11:30am 18.1 15.6 9.7 58 4.6 ENE 13 20 7 11 1023.8 - 0.0
14/11:00am 17.6 15.0 10.7 64 3.8 E 15 22 8 12 1024.3 - 0.0
14/10:30am 16.7 14.2 11.0 69 3.2 ENE 15 22 8 12 1024.7 - 0.0
14/10:00am 16.1 13.4 11.7 75 2.5 ENE 17 22 9 12 1024.8 - 0.0
14/09:30am 15.5 12.9 11.9 79 2.0 ENE 17 22 9 12 1025.0 - 0.0
14/09:00am 14.9 11.7 11.9 82 1.7 ENE 20 26 11 14 1025.3 1023.6 9.6
14/08:51am 14.9 11.7 12.0 83 1.6 ENE 20 26 11 14 1025.1 - 9.6
14/08:30am 14.3 11.8 12.3 88 1.1 E 17 22 9 12 1025.0 - 9.6
14/08:03am 13.0 9.6 11.4 90 0.9 E 20 24 11 13 1024.8 - 9.6
14/08:00am 12.9 9.5 11.3 90 0.9 E 20 24 11 13 1024.8 - 9.6
14/07:30am 12.5 9.2 11.7 95 0.4 E 20 26 11 14 1024.5 - 9.6
14/07:05am 11.6 8.2 11.3 98 0.2 E 20 24 11 13 1024.2 - 9.6
14/07:00am 11.6 8.4 11.4 99 0.1 E 19 24 10 13 1024.2 - 9.6
14/06:55am 11.6 8.2 11.4 99 0.1 E 20 24 11 13 1024.1 - 9.6
14/06:30am 11.0 7.7 10.8 99 0.1 E 19 24 10 13 1023.9 - 9.6
14/06:00am 10.9 7.5 10.7 99 0.1 E 19 22 10 12 1023.9 1022.2 9.6
14/05:48am 10.9 7.5 10.7 99 0.1 E 19 24 10 13 1023.9 - 9.6
14/05:44am 11.0 7.7 10.8 99 0.1 E 19 24 10 13 1023.9 - 9.6
14/05:30am 10.5 7.4 10.2 98 0.2 E 17 20 9 11 1023.8 - 9.6
14/05:01am 10.7 7.1 10.5 99 0.1 E 20 22 11 12 1023.5 - 9.6
14/05:00am 10.7 7.1 10.5 99 0.1 E 20 22 11 12 1023.5 - 9.6
14/04:58am 10.8 7.2 10.6 99 0.1 E 20 22 11 12 1023.5 - 9.6
14/04:30am 11.0 7.7 10.8 99 0.1 E 19 22 10 12 1023.4 - 9.6
14/04:00am 11.3 8.1 11.1 99 0.1 E 19 24 10 13 1023.1 - 9.6
14/03:30am 11.2 7.4 11.0 99 0.1 E 22 30 12 16 1023.0 - 9.6
14/03:00am 11.3 7.1 11.0 98 0.2 E 24 30 13 16 1023.2 1021.6 9.6
14/02:51am 11.3 7.8 10.8 97 0.3 E 20 30 11 16 1023.2 - 9.6
14/02:30am 11.3 7.7 10.7 96 0.3 E 20 26 11 14 1023.4 - 9.6
14/02:09am 11.4 7.9 10.8 96 0.3 E 20 28 11 15 1023.8 - 9.4
14/02:00am 11.3 7.7 10.7 96 0.3 E 20 26 11 14 1024.0 - 9.4
14/01:30am 11.1 8.4 10.5 96 0.3 E 15 17 8 9 1024.2 - 9.4
14/01:00am 11.1 8.1 10.5 96 0.3 E 17 20 9 11 1024.5 - 9.4
14/12:30am 11.3 7.7 10.7 96 0.3 E 20 24 11 13 1024.6 - 9.4
14/12:27am 11.3 7.7 10.7 96 0.3 E 20 24 11 13 1024.6 - 9.4
14/12:04am 11.8 8.4 11.3 97 0.3 E 20 24 11 13 1024.8 - 9.4
14/12:00am 11.7 8.3 11.2 97 0.3 E 20 26 11 14 1024.8 1023.2 9.4
 
Date/Time
EST
Temp
°C
App
Temp
°C
Dew
Point
Rel
Hum
%
Delta-T
°C
Wind Press
QNH
hPa
Press
MSL
hPa
Rain
since 9 am
mm
Dir
 
Spd
km/h
Gust
km/h
Spd
kts
Gust
kts
13/11:30pm 11.8 8.0 11.0 95 0.4 E 22 28 12 15 1024.9 - 9.4
13/11:00pm 11.9 8.5 11.1 95 0.4 E 20 26 11 14 1025.0 - 9.4
13/10:30pm 11.9 8.5 11.1 95 0.4 ENE 20 26 11 14 1025.7 - 9.4
13/10:00pm 11.9 10.0 10.6 92 0.7 ENE 11 13 6 7 1026.3 - 9.2
13/09:57pm 11.9 10.4 10.5 91 0.7 ENE 9 13 5 7 1026.4 - 9.0
13/09:30pm 11.9 10.4 10.6 92 0.7 ENE 9 13 5 7 1026.6 - 6.8
13/09:27pm 11.9 10.4 10.6 92 0.7 E 9 13 5 7 1026.6 - 6.4
13/09:20pm 11.8 9.9 10.4 91 0.7 E 11 17 6 9 1026.7 - 5.6
13/09:10pm 11.9 8.2 10.1 89 1.0 ESE 20 28 11 15 1026.8 - 4.6
13/09:00pm 12.2 10.2 11.4 95 0.4 ESE 13 22 7 12 1026.8 1025.2 3.4
13/08:45pm 11.9 10.6 11.1 95 0.4 S 9 13 5 7 1027.0 - 2.0
13/08:30pm 11.7 9.1 10.8 94 0.5 SW 15 24 8 13 1026.7 - 1.2
13/08:22pm 11.7 8.2 10.1 90 0.8 SSW 19 28 10 15 1026.8 - 0.4
13/08:00pm 13.6 10.4 9.8 78 2.0 SE 17 24 9 13 1026.4 - 0.0
13/07:30pm 13.9 10.1 9.9 77 2.1 E 20 26 11 14 1025.4 - 0.0
13/07:00pm 14.0 9.9 10.0 77 2.1 E 22 30 12 16 1025.0 - 0.0
13/06:30pm 14.8 9.9 10.0 73 2.6 E 26 33 14 18 1024.5 - 0.0
13/06:00pm 16.6 14.2 8.8 60 4.1 NE 11 17 6 9 1024.1 1022.4 0.0
13/05:30pm 17.4 14.6 8.5 56 4.7 E 13 17 7 9 1023.5 - 0.0
13/05:00pm 17.7 14.3 9.1 57 4.6 E 17 20 9 11 1023.3 - 0.0
13/04:30pm 17.3 13.7 10.0 62 4.0 E 19 20 10 11 1023.3 - 0.0
13/04:00pm 18.7 14.8 8.7 52 5.4 E 19 24 10 13 1023.3 - 0.0
13/03:30pm 19.4 16.4 7.8 47 6.1 NE 13 19 7 10 1023.2 - 0.0
13/03:00pm 19.8 16.8 9.1 50 5.8 ENE 15 24 8 13 1023.2 1021.6 0.0
13/02:30pm 20.0 17.7 9.0 49 6.0 NE 11 20 6 11 1023.4 - 0.0
13/02:00pm 19.3 15.8 8.6 50 5.8 ESE 17 22 9 12 1023.9 - 0.0
13/01:30pm 19.5 15.8 7.9 47 6.2 E 17 26 9 14 1024.2 - 0.0
13/01:00pm 18.7 14.8 9.5 55 5.0 E 20 30 11 16 1024.5 - 0.0
13/12:30pm 18.8 16.2 9.3 54 5.2 E 13 26 7 14 1024.8 - 0.0
13/12:00pm 18.4 14.4 9.2 55 5.0 ENE 20 28 11 15 1025.1 1023.5 0.0
13/11:30am 18.3 14.7 10.4 60 4.4 NE 20 28 11 15 1025.5 - 0.0
13/11:00am 17.9 13.4 10.0 60 4.3 E 24 32 13 17 1025.6 - 0.0

Other Formats:

Comma delimited format used in spreadsheet applications
http://www.bom.gov.au/fwo/IDQ60801/IDQ60801.95551.axf

JavaScript Object Notation format (JSON) in row-major order
http://www.bom.gov.au/fwo/IDQ60801/IDQ60801.95551.json